createdAt,value
2018-04-10T00:01:33.274Z,13.59
2018-04-10T00:04:00.824Z,13.53
2018-04-10T00:06:28.417Z,13.55
2018-04-10T00:08:55.981Z,13.52
2018-04-10T00:11:23.539Z,13.59
2018-04-10T00:13:51.093Z,13.54
2018-04-10T00:16:18.704Z,13.55
2018-04-10T00:18:46.237Z,13.42
2018-04-10T00:21:14.744Z,13.35
2018-04-10T00:23:42.314Z,13.37
2018-04-10T00:26:09.888Z,13.35
2018-04-10T00:28:37.464Z,13.23
2018-04-10T00:31:04.998Z,13.00
2018-04-10T00:33:32.548Z,13.02
2018-04-10T00:36:00.117Z,12.91
2018-04-10T00:38:27.691Z,12.93
2018-04-10T00:40:55.261Z,13.09
2018-04-10T00:43:22.801Z,13.13
2018-04-10T00:45:50.356Z,13.08
2018-04-10T00:48:17.896Z,13.13
2018-04-10T00:50:45.468Z,13.00
2018-04-10T00:53:36.780Z,13.00
2018-04-10T00:56:04.347Z,13.10
2018-04-10T00:58:31.890Z,13.10
2018-04-10T01:00:59.486Z,13.04
2018-04-10T01:03:27.099Z,13.02
2018-04-10T01:05:54.683Z,13.04
2018-04-10T01:08:22.256Z,13.07
2018-04-10T01:10:49.813Z,13.03
2018-04-10T01:13:17.372Z,13.08
2018-04-10T01:15:44.947Z,13.07
2018-04-10T01:18:12.533Z,13.07
2018-04-10T01:20:40.093Z,13.07
2018-04-10T01:23:07.648Z,13.03
2018-04-10T01:25:35.211Z,12.98
2018-04-10T01:28:02.768Z,13.00
2018-04-10T01:30:30.323Z,13.04
2018-04-10T01:32:57.889Z,13.04
2018-04-10T01:35:25.433Z,13.00
2018-04-10T01:37:52.995Z,12.96
2018-04-10T01:40:20.578Z,12.90
2018-04-10T01:42:48.142Z,12.87
2018-04-10T01:45:15.726Z,12.81
2018-04-10T01:47:43.517Z,12.88
2018-04-10T01:50:11.161Z,12.87
2018-04-10T01:52:38.714Z,12.88
2018-04-10T01:55:06.277Z,12.93
2018-04-10T01:57:33.818Z,12.91
2018-04-10T02:00:01.380Z,12.89
2018-04-10T02:02:28.943Z,12.88
2018-04-10T02:04:56.500Z,12.82
2018-04-10T02:07:24.076Z,12.79
2018-04-10T02:21:33.859Z,12.65
2018-04-10T02:24:18.959Z,12.64
2018-04-10T02:26:46.501Z,12.62
2018-04-10T02:29:14.047Z,12.59
2018-04-10T02:31:41.600Z,12.57
2018-04-10T02:34:09.195Z,12.58
2018-04-10T02:36:36.733Z,12.58
2018-04-10T02:39:04.314Z,12.55
2018-04-10T02:41:31.878Z,12.49
2018-04-10T02:44:00.022Z,12.57
2018-04-10T02:46:27.769Z,12.48
2018-04-10T02:48:55.326Z,12.40
2018-04-10T02:51:22.888Z,12.30
2018-04-10T02:53:50.464Z,12.37
2018-04-10T02:56:18.027Z,12.33
2018-04-10T02:58:45.581Z,12.34
2018-04-10T03:01:13.120Z,12.22
2018-04-10T03:03:40.649Z,12.25
2018-04-10T03:06:08.201Z,12.23
2018-04-10T03:08:35.752Z,12.28
2018-04-10T03:11:03.309Z,12.29
2018-04-10T03:13:30.862Z,12.33
2018-04-10T03:15:58.453Z,12.28
2018-04-10T03:18:26.043Z,12.31
2018-04-10T03:20:54.212Z,12.27
2018-04-10T03:23:21.742Z,12.25
2018-04-10T03:25:49.333Z,12.16
2018-04-10T03:28:16.889Z,12.16
2018-04-10T03:30:44.469Z,12.09
2018-04-10T03:33:12.090Z,12.14
2018-04-10T03:35:39.677Z,12.19
2018-04-10T03:38:07.230Z,12.08
2018-04-10T03:40:34.798Z,12.03
2018-04-10T03:43:02.358Z,11.98
2018-04-10T03:45:29.950Z,11.97
2018-04-10T03:47:57.566Z,11.97
2018-04-10T03:50:25.125Z,11.93
2018-04-10T03:52:52.668Z,11.91
2018-04-10T03:55:20.233Z,11.91
2018-04-10T03:57:47.798Z,11.87
2018-04-10T04:00:15.363Z,11.90
2018-04-10T04:02:42.910Z,11.89
2018-04-10T04:05:10.486Z,11.86
2018-04-10T04:07:38.041Z,11.89
2018-04-10T04:10:05.607Z,11.85
2018-04-10T04:12:33.185Z,11.80
2018-04-10T04:15:00.736Z,11.79
2018-04-10T04:17:34.150Z,11.83
2018-04-10T04:20:13.407Z,11.85
2018-04-10T04:22:40.964Z,11.84
2018-04-10T04:25:08.563Z,11.84
2018-04-10T04:27:36.113Z,11.86
2018-04-10T04:30:03.687Z,11.81
2018-04-10T04:32:31.257Z,11.85
2018-04-10T04:34:58.806Z,11.83
2018-04-10T04:37:26.417Z,11.88
2018-04-10T04:39:54.005Z,11.85
2018-04-10T04:42:21.584Z,11.86
2018-04-10T04:44:49.121Z,11.92
2018-04-10T04:47:16.735Z,11.98
2018-04-10T04:49:44.313Z,12.04
2018-04-10T04:52:11.893Z,12.08
2018-04-10T04:54:39.425Z,12.09
2018-04-10T04:57:07.051Z,12.14
2018-04-10T04:59:34.631Z,12.17
2018-04-10T05:02:02.173Z,12.17
2018-04-10T05:04:29.733Z,12.26
2018-04-10T05:06:57.286Z,12.34
2018-04-10T05:09:24.853Z,12.38
2018-04-10T05:11:52.422Z,12.41
2018-04-10T05:14:19.957Z,12.41
2018-04-10T05:16:47.514Z,12.44
2018-04-10T05:19:15.112Z,12.42
2018-04-10T05:21:42.696Z,12.38
2018-04-10T05:24:10.248Z,12.51
2018-04-10T05:26:37.812Z,12.52
2018-04-10T05:29:05.376Z,12.66
2018-04-10T05:31:32.931Z,12.70
2018-04-10T05:34:00.516Z,12.55
2018-04-10T05:36:28.049Z,12.68
2018-04-10T05:38:55.607Z,12.66
2018-04-10T05:41:23.152Z,12.80
2018-04-10T05:43:50.717Z,12.87
2018-04-10T05:46:18.293Z,12.87
2018-04-10T05:48:45.853Z,13.02
2018-04-10T05:51:13.412Z,13.11
2018-04-10T05:53:40.973Z,13.22
2018-04-10T05:56:08.541Z,13.39
2018-04-10T05:58:36.076Z,13.78
2018-04-10T06:01:03.649Z,14.45
2018-04-10T06:03:31.219Z,14.83
2018-04-10T06:05:58.772Z,15.43
2018-04-10T06:08:26.324Z,15.46
2018-04-10T06:10:53.873Z,15.25
2018-04-10T06:13:21.413Z,15.57
2018-04-10T06:15:49.033Z,15.40
2018-04-10T06:18:16.580Z,16.11
2018-04-10T06:20:44.146Z,16.69
2018-04-10T06:23:11.707Z,16.48
2018-04-10T06:25:39.296Z,17.51
2018-04-10T06:28:06.875Z,17.68
2018-04-10T06:30:34.422Z,18.11
2018-04-10T06:33:01.981Z,16.45
2018-04-10T06:35:29.553Z,16.35
2018-04-10T06:37:57.101Z,16.28
2018-04-10T06:40:24.707Z,17.63
2018-04-10T06:42:52.308Z,17.45
2018-04-10T06:45:19.859Z,16.65
2018-04-10T06:47:47.406Z,17.18
2018-04-10T06:50:14.965Z,16.70
2018-04-10T06:52:42.539Z,16.64
2018-04-10T06:55:10.124Z,16.85
2018-04-10T06:57:37.678Z,16.55
2018-04-10T07:00:05.284Z,16.71
2018-04-10T07:02:32.830Z,16.72
2018-04-10T07:05:00.392Z,16.44
2018-04-10T07:07:27.957Z,16.52
2018-04-10T07:09:55.511Z,17.08
2018-04-10T07:12:23.038Z,17.05
2018-04-10T07:14:50.594Z,16.75
2018-04-10T07:17:18.137Z,16.56
2018-04-10T07:19:45.711Z,16.17
2018-04-10T07:22:13.304Z,16.35
2018-04-10T07:24:40.853Z,16.22
2018-04-10T07:27:08.393Z,17.32
2018-04-10T07:29:35.941Z,16.69
2018-04-10T07:32:03.865Z,16.94
2018-04-10T07:34:31.413Z,17.15
2018-04-10T07:36:58.965Z,17.84
2018-04-10T07:39:26.545Z,17.76
2018-04-10T07:41:54.123Z,18.54
2018-04-10T07:44:21.677Z,18.47
2018-04-10T07:46:49.234Z,18.61
2018-04-10T07:49:16.801Z,18.45
2018-04-10T07:51:44.366Z,19.47
2018-04-10T07:54:11.955Z,19.25
2018-04-10T07:56:39.507Z,20.29
2018-04-10T07:59:07.083Z,21.04
2018-04-10T08:01:34.622Z,19.51
2018-04-10T08:04:02.191Z,19.70
2018-04-10T08:06:29.759Z,19.61
2018-04-10T08:08:57.307Z,20.27
2018-04-10T08:11:24.848Z,19.53
2018-04-10T08:13:52.418Z,20.55
2018-04-10T08:16:19.989Z,20.21
2018-04-10T08:18:47.519Z,21.02
2018-04-10T19:14:13.964Z,16.88
2018-04-10T19:16:42.367Z,16.74
2018-04-10T19:19:09.963Z,16.61
2018-04-10T19:21:37.520Z,16.49
2018-04-10T19:24:05.113Z,16.40
2018-04-10T19:26:32.727Z,16.33
2018-04-10T19:29:00.305Z,16.32
2018-04-10T19:31:27.896Z,16.24
2018-04-10T19:33:55.423Z,16.15
2018-04-10T19:36:22.992Z,16.08
2018-04-10T19:38:50.548Z,15.96
2018-04-10T19:41:18.102Z,15.84
2018-04-10T19:43:45.662Z,15.84
2018-04-10T19:46:13.226Z,15.68
2018-04-10T19:48:40.802Z,15.63
2018-04-10T19:51:08.375Z,15.53
2018-04-10T19:53:35.938Z,15.40
2018-04-10T19:56:03.504Z,15.28
2018-04-10T19:58:31.059Z,15.18
2018-04-10T20:00:58.585Z,15.15
2018-04-10T20:03:26.145Z,15.08
2018-04-10T20:05:53.734Z,15.01
2018-04-10T20:08:21.280Z,14.87
2018-04-10T20:10:48.925Z,14.78
2018-04-10T20:13:16.532Z,14.67
2018-04-10T20:15:44.121Z,14.62
2018-04-10T20:18:11.777Z,14.44
2018-04-10T20:20:39.842Z,14.40
2018-04-10T20:23:07.406Z,14.21
2018-04-10T20:25:34.990Z,14.18
2018-04-10T20:28:02.582Z,14.10
2018-04-10T20:30:30.155Z,13.89
2018-04-10T20:32:57.705Z,13.93
2018-04-10T20:35:25.279Z,13.73
2018-04-10T20:37:53.036Z,13.64
2018-04-10T20:40:21.196Z,13.47
2018-04-10T20:42:48.765Z,13.48
2018-04-10T20:45:16.317Z,13.24
2018-04-10T20:47:43.892Z,13.16
2018-04-10T20:50:11.455Z,13.09
2018-04-10T20:52:39.002Z,12.95
2018-04-10T20:55:06.655Z,12.85
2018-04-10T20:57:34.354Z,12.67
2018-04-10T21:00:02.120Z,12.64
2018-04-10T21:02:29.844Z,12.61
2018-04-10T21:04:57.635Z,12.48
2018-04-10T21:07:25.299Z,12.28
2018-04-10T21:09:52.901Z,12.23
2018-04-10T21:12:20.445Z,12.16
2018-04-10T21:14:48.126Z,12.12
2018-04-10T21:17:15.763Z,12.04
2018-04-10T21:19:43.359Z,12.02
2018-04-10T21:22:10.917Z,12.03
2018-04-10T21:24:38.515Z,11.98
2018-04-10T21:27:06.261Z,11.85
2018-04-10T21:29:33.823Z,11.86
2018-04-10T21:32:01.495Z,11.76
2018-04-10T21:34:29.086Z,11.64
2018-04-10T21:36:56.679Z,11.49
2018-04-10T21:39:24.376Z,11.41
2018-04-10T21:41:51.939Z,11.34
2018-04-10T21:44:19.633Z,11.32
2018-04-10T21:46:47.255Z,11.21
2018-04-10T21:49:14.853Z,11.14
2018-04-10T21:51:42.573Z,11.08
2018-04-10T21:54:10.148Z,11.01
2018-04-10T21:56:37.712Z,11.06
2018-04-10T21:59:05.469Z,11.01
2018-04-10T22:01:34.633Z,10.85
2018-04-10T22:04:02.792Z,10.84
2018-04-10T22:06:30.354Z,10.86
2018-04-10T22:08:57.916Z,10.67
2018-04-10T22:11:25.625Z,10.67
2018-04-10T22:13:53.181Z,10.59
2018-04-10T22:16:20.738Z,10.60
2018-04-10T22:18:48.312Z,10.53
2018-04-10T22:21:15.857Z,10.40
2018-04-10T22:23:43.421Z,10.40
2018-04-10T22:26:10.991Z,10.37
2018-04-10T22:28:38.591Z,10.32
2018-04-10T22:31:06.149Z,10.25
2018-04-10T22:33:33.701Z,10.18
2018-04-10T22:36:01.313Z,10.11
2018-04-10T22:38:28.895Z,10.11
2018-04-10T22:40:56.500Z,10.04
2018-04-10T22:43:24.089Z,10.10
2018-04-10T22:45:51.675Z,10.01
2018-04-10T22:48:19.252Z,9.95
2018-04-10T22:50:46.815Z,9.93
2018-04-10T22:53:14.386Z,9.92
2018-04-10T22:55:41.959Z,9.84
2018-04-10T22:58:09.520Z,9.80
2018-04-10T23:00:54.728Z,9.77
2018-04-10T23:03:22.296Z,9.79
2018-04-10T23:05:49.877Z,9.72
2018-04-10T23:08:17.474Z,9.63
2018-04-10T23:10:45.013Z,9.69
2018-04-10T23:13:12.785Z,9.56
2018-04-10T23:15:40.350Z,9.60
2018-04-10T23:18:07.925Z,9.52
2018-04-10T23:20:35.493Z,9.48
2018-04-10T23:23:03.066Z,9.47
2018-04-10T23:25:30.630Z,9.46
2018-04-10T23:27:58.188Z,9.45
2018-04-10T23:30:25.728Z,9.38
2018-04-10T23:32:53.286Z,9.40
2018-04-10T23:35:20.886Z,9.34
2018-04-10T23:37:48.456Z,9.34
2018-04-10T23:40:15.992Z,9.30
2018-04-10T23:42:43.577Z,9.30
2018-04-10T23:45:11.135Z,9.21
2018-04-10T23:47:38.724Z,9.15
2018-04-10T23:50:06.271Z,9.15
2018-04-10T23:52:33.815Z,9.16
2018-04-10T23:55:01.369Z,9.10
2018-04-10T23:57:28.929Z,9.08
2018-04-10T23:59:56.460Z,9.03
